createdAt,value
2022-08-12T00:02:20.107Z,2.23
2022-08-12T00:05:56.332Z,1.73
2022-08-12T00:09:26.250Z,2.00
2022-08-12T00:12:46.988Z,1.80
2022-08-12T00:16:08.925Z,1.73
2022-08-12T00:19:29.402Z,1.80
2022-08-12T00:22:58.621Z,1.83
2022-08-12T00:26:22.224Z,2.00
2022-08-12T00:29:47.775Z,1.63
2022-08-12T00:33:08.733Z,1.40
2022-08-12T00:36:35.171Z,1.23
2022-08-12T00:39:58.666Z,1.90
2022-08-12T00:43:01.635Z,1.40
2022-08-12T00:46:22.855Z,1.50
2022-08-12T00:49:27.080Z,1.87
2022-08-12T00:52:29.815Z,1.50
2022-08-12T00:55:33.972Z,1.50
2022-08-12T00:58:38.255Z,1.57
2022-08-12T01:02:04.272Z,1.87
2022-08-12T01:05:28.410Z,1.50
2022-08-12T01:08:44.980Z,1.38
2022-08-12T01:11:49.671Z,1.60
2022-08-12T01:14:53.809Z,1.50
2022-08-12T01:17:56.992Z,1.30
2022-08-12T01:21:08.270Z,2.00
2022-08-12T01:24:31.323Z,1.30
2022-08-12T01:27:36.531Z,1.60
2022-08-12T01:30:41.162Z,1.77
2022-08-12T01:33:47.138Z,1.60
2022-08-12T01:36:54.361Z,1.63
2022-08-12T01:40:33.412Z,2.03
2022-08-12T01:43:25.478Z,2.20
2022-08-12T01:46:40.586Z,1.80
2022-08-12T01:49:51.972Z,1.97
2022-08-12T01:53:00.192Z,1.30
2022-08-12T01:56:04.245Z,2.07
2022-08-12T01:59:29.205Z,1.67
2022-08-12T02:02:35.029Z,1.80
2022-08-12T02:06:01.998Z,1.40
2022-08-12T02:09:23.109Z,1.50
2022-08-12T02:12:43.941Z,1.53
2022-08-12T02:15:57.648Z,1.70
2022-08-12T02:19:22.022Z,1.80
2022-08-12T02:22:31.274Z,2.00
2022-08-12T02:25:35.813Z,1.80
2022-08-12T02:28:38.756Z,1.50
2022-08-12T02:31:45.590Z,1.80
2022-08-12T02:34:48.387Z,2.00
2022-08-12T02:37:53.698Z,1.92
2022-08-12T02:40:59.140Z,2.03
2022-08-12T02:44:06.165Z,1.63
2022-08-12T02:47:58.340Z,2.00
2022-08-12T02:50:36.422Z,1.83
2022-08-12T02:53:40.408Z,2.17
2022-08-12T02:56:50.624Z,1.63
2022-08-12T02:59:54.142Z,1.90
2022-08-12T03:03:01.844Z,2.03
2022-08-12T03:06:08.194Z,1.77
2022-08-12T03:09:14.627Z,1.90
2022-08-12T03:12:19.957Z,1.97
2022-08-12T03:15:24.969Z,1.83
2022-08-12T03:18:31.896Z,1.80
2022-08-12T03:21:54.660Z,1.67
2022-08-12T03:25:05.464Z,2.20
2022-08-12T03:28:11.142Z,1.57
2022-08-12T03:31:29.733Z,1.90
2022-08-12T03:34:36.749Z,2.07
2022-08-12T03:37:41.407Z,1.60
2022-08-12T03:41:12.227Z,1.60
2022-08-12T03:44:36.043Z,2.13
2022-08-12T03:51:20.657Z,2.33
2022-08-12T03:54:42.720Z,1.60
2022-08-12T03:58:03.288Z,2.00
2022-08-12T04:01:06.783Z,1.83
2022-08-12T04:04:10.577Z,2.13
2022-08-12T04:07:17.190Z,1.80
2022-08-12T04:10:20.715Z,1.83
2022-08-12T04:13:23.906Z,1.83
2022-08-12T04:16:36.234Z,1.60
2022-08-12T04:19:39.719Z,2.07
2022-08-12T04:22:45.005Z,1.93
2022-08-12T04:25:48.757Z,2.17
2022-08-12T04:28:52.175Z,1.70
2022-08-12T04:31:57.673Z,2.47
2022-08-12T04:35:01.168Z,2.63
2022-08-12T04:38:09.575Z,1.73
2022-08-12T04:41:13.470Z,2.23
2022-08-12T04:44:17.674Z,1.70
2022-08-12T04:47:21.600Z,1.63
2022-08-12T04:50:33.766Z,1.50
2022-08-12T04:53:41.317Z,1.83
2022-08-12T04:56:44.703Z,2.00
2022-08-12T05:00:11.278Z,1.88
2022-08-12T05:03:15.489Z,2.30
2022-08-12T05:06:26.317Z,1.80
2022-08-12T05:09:59.079Z,2.00
2022-08-12T05:12:57.388Z,1.87
2022-08-12T05:16:09.299Z,2.13
2022-08-12T05:19:18.757Z,2.00
2022-08-12T05:22:25.880Z,2.15
2022-08-12T05:25:31.547Z,1.80
2022-08-12T05:28:34.784Z,2.00
2022-08-12T05:31:47.414Z,2.23
2022-08-12T05:34:53.827Z,2.20
2022-08-12T05:38:10.450Z,2.60
2022-08-12T05:41:20.540Z,2.10
2022-08-12T05:44:23.620Z,2.57
2022-08-12T05:47:40.668Z,1.95
2022-08-12T05:50:56.872Z,2.37
2022-08-12T05:54:02.202Z,2.20
2022-08-12T05:57:08.367Z,2.60
2022-08-12T06:00:13.328Z,2.73
2022-08-12T06:03:19.307Z,2.30
2022-08-12T06:06:27.407Z,1.90
2022-08-12T06:09:32.130Z,1.97
2022-08-12T06:12:36.336Z,1.90
2022-08-12T06:15:41.106Z,2.00
2022-08-12T06:18:44.263Z,2.17
2022-08-12T06:21:48.739Z,2.28
2022-08-12T06:24:53.038Z,1.73
2022-08-12T06:28:06.425Z,2.00
2022-08-12T06:31:25.891Z,1.80
2022-08-12T06:35:23.978Z,1.73
2022-08-12T06:37:56.748Z,2.80
2022-08-12T06:41:18.853Z,1.93
2022-08-12T06:44:23.237Z,2.43
2022-08-12T06:47:26.151Z,2.13
2022-08-12T06:50:31.004Z,2.05
2022-08-12T06:53:37.226Z,2.17
2022-08-12T06:57:03.137Z,1.93
2022-08-12T07:00:05.221Z,2.22
2022-08-12T07:03:22.661Z,1.70
2022-08-12T07:06:26.731Z,1.90
2022-08-12T07:12:54.888Z,1.80
2022-08-12T07:15:59.660Z,1.60
2022-08-12T07:19:04.250Z,1.60
2022-08-12T07:22:07.713Z,2.17
2022-08-12T07:25:29.039Z,1.77
2022-08-12T07:28:34.913Z,1.67
2022-08-12T07:31:39.794Z,1.70
2022-08-12T07:34:43.551Z,1.60
2022-08-12T07:37:47.328Z,1.60
2022-08-12T07:40:50.552Z,1.60
2022-08-12T07:43:54.997Z,2.00
2022-08-12T07:46:59.348Z,1.80
2022-08-12T07:50:05.494Z,1.37
2022-08-12T07:53:10.399Z,2.10
2022-08-12T07:56:13.721Z,1.67
2022-08-12T07:59:17.216Z,1.40
2022-08-12T08:02:26.500Z,1.50
2022-08-12T08:05:37.335Z,1.43
2022-08-12T08:08:41.809Z,2.13
2022-08-12T08:12:01.952Z,1.50
2022-08-12T08:15:08.008Z,1.83
2022-08-12T08:18:26.654Z,1.60
2022-08-12T08:21:35.482Z,1.73
2022-08-12T08:24:38.504Z,1.67
2022-08-12T08:30:50.497Z,1.53
2022-08-12T08:34:04.732Z,1.80
2022-08-12T08:37:17.048Z,1.37
2022-08-12T08:40:38.194Z,1.17
2022-08-12T08:43:44.098Z,1.80
2022-08-12T08:46:47.895Z,1.50
2022-08-12T08:49:52.337Z,1.70
2022-08-12T08:52:55.197Z,1.40
2022-08-12T08:59:08.473Z,1.27
2022-08-12T09:05:25.385Z,1.15
2022-08-12T09:08:29.563Z,1.08
2022-08-12T09:15:17.114Z,1.15
2022-08-12T09:21:54.331Z,1.00
2022-08-12T09:25:01.252Z,1.10
2022-08-12T09:28:10.773Z,1.08
2022-08-12T09:32:05.891Z,1.10
2022-08-12T09:34:42.406Z,0.90
2022-08-12T09:37:57.689Z,1.00
2022-08-12T09:42:34.190Z,1.80
2022-08-12T09:44:45.526Z,0.82
2022-08-12T09:47:57.061Z,1.30
2022-08-12T09:51:03.788Z,1.38
2022-08-12T09:54:33.974Z,1.15
2022-08-12T09:58:47.063Z,1.08
2022-08-12T10:01:06.352Z,1.40
2022-08-12T10:04:19.829Z,1.25
2022-08-12T10:07:28.630Z,1.08
2022-08-12T10:10:59.002Z,1.00
2022-08-12T10:14:02.904Z,1.13
2022-08-12T10:17:08.901Z,1.25
2022-08-12T10:20:12.734Z,1.25
2022-08-12T10:23:16.022Z,1.10
2022-08-12T10:26:39.337Z,1.42
2022-08-12T10:30:11.908Z,1.08
2022-08-12T10:33:19.302Z,1.58
2022-08-12T10:36:36.407Z,1.13
2022-08-12T10:40:03.192Z,1.25
2022-08-12T10:43:25.811Z,1.00
2022-08-12T10:46:32.048Z,1.13
2022-08-12T10:50:03.660Z,1.02
2022-08-12T10:53:00.579Z,1.20
2022-08-12T10:56:03.807Z,1.48
2022-08-12T10:59:11.038Z,0.85
2022-08-12T11:04:26.008Z,1.00
2022-08-12T11:09:00.508Z,0.90
2022-08-12T11:12:36.949Z,1.73
2022-08-12T11:16:04.320Z,0.90
2022-08-12T11:18:57.042Z,1.17
2022-08-12T11:22:01.073Z,1.00
2022-08-12T11:25:10.647Z,1.73
2022-08-12T11:28:15.015Z,1.10
2022-08-12T11:31:20.102Z,1.10
2022-08-12T11:34:52.756Z,1.10
2022-08-12T11:37:58.108Z,1.13
2022-08-12T11:41:31.754Z,1.00
2022-08-12T11:44:43.228Z,1.00
2022-08-12T11:47:47.511Z,1.10
2022-08-12T11:50:52.092Z,0.77
2022-08-12T11:53:57.283Z,1.10
2022-08-12T11:58:09.153Z,1.50
2022-08-12T12:03:50.675Z,0.80
2022-08-12T12:07:07.096Z,0.90
2022-08-12T12:10:11.291Z,0.70
2022-08-12T12:13:23.207Z,0.98
2022-08-12T12:16:38.201Z,1.35
2022-08-12T12:19:46.402Z,1.00
2022-08-12T12:22:49.252Z,1.10
2022-08-12T12:25:59.295Z,1.20
2022-08-12T12:30:17.928Z,0.90
2022-08-12T12:36:18.497Z,1.40
2022-08-12T12:39:00.571Z,1.17
2022-08-12T12:42:52.271Z,1.15
2022-08-12T12:48:28.925Z,1.05
2022-08-12T12:51:49.399Z,1.10
2022-08-12T12:54:58.537Z,0.88
2022-08-12T12:58:01.302Z,1.10
2022-08-12T13:01:04.814Z,1.00
2022-08-12T13:04:27.070Z,0.98
2022-08-12T13:07:49.295Z,1.08
2022-08-12T13:10:54.713Z,0.90
2022-08-12T13:14:09.061Z,1.20
2022-08-12T13:17:16.655Z,1.10
2022-08-12T13:20:37.696Z,0.77
2022-08-12T13:23:46.580Z,0.65
2022-08-12T13:26:50.681Z,1.30
2022-08-12T13:29:55.993Z,0.85
2022-08-12T13:33:00.145Z,0.93
2022-08-12T13:36:10.262Z,0.95
2022-08-12T13:39:16.450Z,0.98
2022-08-12T13:42:19.372Z,1.23
2022-08-12T13:45:22.204Z,0.90
2022-08-12T13:48:28.967Z,0.82
2022-08-12T13:51:40.702Z,1.00
2022-08-12T13:54:55.837Z,1.38
2022-08-12T13:58:01.665Z,1.00
2022-08-12T14:01:06.359Z,1.20
2022-08-12T14:04:12.351Z,1.00
2022-08-12T14:07:15.333Z,1.08
2022-08-12T14:10:37.736Z,1.10
2022-08-12T14:14:04.888Z,0.70
2022-08-12T14:17:05.457Z,0.93
2022-08-12T14:20:15.738Z,0.80
2022-08-12T14:24:04.409Z,0.80
2022-08-12T14:26:44.243Z,0.60
2022-08-12T14:30:04.657Z,0.82
2022-08-12T14:33:09.121Z,0.70
2022-08-12T14:36:13.873Z,1.00
2022-08-12T14:39:17.510Z,0.70
2022-08-12T14:42:22.732Z,0.80
2022-08-12T14:45:44.979Z,0.80
2022-08-12T14:48:54.519Z,0.77
2022-08-12T14:52:43.229Z,0.70
2022-08-12T14:59:00.007Z,0.70
2022-08-12T15:02:21.503Z,0.70
2022-08-12T15:06:05.483Z,0.80
2022-08-12T15:08:48.118Z,0.60
2022-08-12T15:11:55.455Z,0.82
2022-08-12T15:15:08.837Z,0.70
2022-08-12T15:18:14.468Z,1.23
2022-08-12T15:21:17.702Z,0.95
2022-08-12T15:24:20.467Z,0.88
2022-08-12T15:28:11.104Z,1.05
2022-08-12T15:30:48.276Z,1.10
2022-08-12T15:33:51.139Z,0.88
2022-08-12T15:36:55.763Z,0.95
2022-08-12T15:40:03.128Z,0.90
2022-08-12T15:43:08.313Z,0.80
2022-08-12T15:46:15.496Z,0.77
2022-08-12T15:49:19.455Z,0.70
2022-08-12T15:52:27.294Z,0.85
2022-08-12T15:55:37.289Z,0.70
2022-08-12T15:58:49.026Z,0.70
2022-08-12T16:01:55.247Z,0.65
2022-08-12T16:04:58.869Z,0.63
2022-08-12T16:08:01.665Z,0.75
2022-08-12T16:11:07.446Z,0.70
2022-08-12T16:14:17.681Z,0.65
2022-08-12T16:17:26.077Z,1.00
2022-08-12T16:20:47.355Z,0.70
2022-08-12T16:23:54.930Z,0.93
2022-08-12T16:26:58.541Z,0.77
2022-08-12T16:30:04.391Z,0.90
2022-08-12T16:33:13.880Z,1.40
2022-08-12T16:39:23.519Z,1.02
2022-08-12T16:42:28.905Z,0.93
2022-08-12T16:46:05.050Z,0.70
2022-08-12T16:48:58.375Z,0.77
2022-08-12T16:52:02.385Z,0.90
2022-08-12T16:55:12.940Z,0.65
2022-08-12T16:58:28.534Z,0.70
2022-08-12T17:01:37.578Z,0.60
2022-08-12T17:04:52.841Z,0.77
2022-08-12T17:07:56.170Z,0.65
2022-08-12T17:10:59.729Z,1.00
2022-08-12T17:14:02.558Z,0.65
2022-08-12T17:17:18.552Z,0.50
2022-08-12T17:20:36.485Z,1.23
2022-08-12T17:23:48.310Z,0.82
2022-08-12T17:26:56.440Z,1.00
2022-08-12T17:30:03.497Z,0.80
2022-08-12T17:33:07.605Z,0.80
2022-08-12T17:36:11.762Z,0.75
2022-08-12T17:39:14.585Z,0.50
2022-08-12T17:42:32.902Z,0.45
2022-08-12T17:45:39.036Z,0.70
2022-08-12T17:48:54.915Z,0.70
2022-08-12T17:52:02.633Z,0.80
2022-08-12T17:55:39.896Z,0.50
2022-08-12T17:58:37.613Z,0.50
2022-08-12T18:01:45.593Z,0.43
2022-08-12T18:05:04.569Z,0.40
2022-08-12T18:08:11.731Z,0.70
2022-08-12T18:12:03.153Z,0.70
2022-08-12T18:14:58.669Z,0.50
2022-08-12T18:18:02.593Z,0.60
2022-08-12T18:21:07.490Z,0.80
2022-08-12T18:24:21.591Z,0.93
2022-08-12T18:27:28.059Z,0.85
2022-08-12T18:30:34.595Z,0.95
2022-08-12T18:33:43.800Z,0.70
2022-08-12T18:36:54.046Z,0.75
2022-08-12T18:40:18.167Z,0.80
2022-08-12T18:43:20.801Z,1.08
2022-08-12T18:46:29.390Z,1.45
2022-08-12T18:49:39.112Z,1.20
2022-08-12T18:52:43.067Z,1.33
2022-08-12T18:55:59.268Z,1.10
2022-08-12T18:59:02.847Z,1.00
2022-08-12T19:02:19.424Z,0.80
2022-08-12T19:05:53.209Z,1.00
2022-08-12T19:08:50.671Z,1.10
2022-08-12T19:12:13.040Z,1.00
2022-08-12T19:15:24.163Z,0.90
2022-08-12T19:18:29.183Z,1.33
2022-08-12T19:21:33.427Z,1.50
2022-08-12T19:24:57.757Z,1.30
2022-08-12T19:28:05.716Z,1.00
2022-08-12T19:31:44.804Z,0.93
2022-08-12T19:41:42.612Z,0.83
2022-08-12T19:45:04.523Z,0.60
2022-08-12T19:48:11.023Z,0.80
2022-08-12T19:51:33.365Z,1.03
2022-08-12T19:54:38.781Z,1.00
2022-08-12T19:58:03.375Z,0.80
2022-08-12T20:01:11.644Z,1.27
2022-08-12T20:04:14.809Z,0.90
2022-08-12T20:07:23.858Z,1.00
2022-08-12T20:10:35.123Z,0.97
2022-08-12T20:13:42.073Z,1.00
2022-08-12T20:16:52.103Z,0.97
2022-08-12T20:20:17.415Z,1.50
2022-08-12T20:26:26.289Z,0.90
2022-08-12T20:29:36.538Z,0.80
2022-08-12T20:32:57.946Z,1.27
2022-08-12T20:36:14.468Z,1.00
2022-08-12T20:39:52.565Z,1.20
2022-08-12T20:42:47.992Z,1.33
2022-08-12T20:45:57.665Z,0.90
2022-08-12T20:49:14.771Z,0.80
2022-08-12T20:52:22.463Z,0.90
2022-08-12T20:55:43.057Z,1.17
2022-08-12T20:58:46.469Z,1.60
2022-08-12T21:01:54.063Z,1.08
2022-08-12T21:05:19.925Z,0.87
2022-08-12T21:08:26.437Z,0.80
2022-08-12T21:11:30.264Z,1.20
2022-08-12T21:14:39.660Z,1.20
2022-08-12T21:18:09.654Z,1.25
2022-08-12T21:21:24.003Z,1.20
2022-08-12T21:24:46.603Z,1.07
2022-08-12T21:27:59.126Z,1.40
2022-08-12T21:32:34.559Z,1.00
2022-08-12T21:34:29.666Z,0.95
2022-08-12T21:37:37.527Z,0.80
2022-08-12T21:40:51.846Z,1.03
2022-08-12T21:44:01.802Z,1.00
2022-08-12T21:47:06.654Z,1.17
2022-08-12T21:50:22.385Z,1.20
2022-08-12T21:54:06.982Z,1.20
2022-08-12T21:56:56.052Z,0.90
2022-08-12T21:59:58.739Z,1.30
2022-08-12T22:04:01.364Z,1.00
2022-08-12T22:06:44.525Z,1.10
2022-08-12T22:09:57.072Z,0.80
2022-08-12T22:13:00.910Z,1.08
2022-08-12T22:16:04.323Z,1.00
2022-08-12T22:19:07.351Z,0.93
2022-08-12T22:22:09.964Z,1.23
2022-08-12T22:25:16.719Z,1.20
2022-08-12T22:28:40.569Z,1.10
2022-08-12T22:31:43.426Z,0.90
2022-08-12T22:34:46.164Z,1.08
2022-08-12T22:37:48.737Z,1.05
2022-08-12T22:40:54.481Z,1.08
2022-08-12T22:44:14.970Z,0.90
2022-08-12T22:47:53.280Z,1.00
2022-08-12T22:50:59.379Z,2.13
2022-08-12T22:54:02.201Z,1.90
2022-08-12T22:57:11.941Z,2.22
2022-08-12T23:00:24.578Z,1.00
2022-08-12T23:03:47.651Z,2.37
2022-08-12T23:06:56.133Z,1.03
2022-08-12T23:09:58.829Z,0.90
2022-08-12T23:13:28.105Z,1.70
2022-08-12T23:16:49.483Z,1.50
2022-08-12T23:19:55.479Z,1.30
2022-08-12T23:23:09.196Z,1.20
2022-08-12T23:26:12.038Z,1.07
2022-08-12T23:29:26.018Z,1.00
2022-08-12T23:32:35.740Z,0.93
2022-08-12T23:35:45.844Z,1.10
2022-08-12T23:39:01.749Z,0.97
2022-08-12T23:42:17.729Z,1.83
2022-08-12T23:45:30.761Z,1.27
2022-08-12T23:51:37.647Z,1.33
2022-08-12T23:54:44.871Z,1.10
2022-08-12T23:58:17.665Z,1.00
